createdAt,value
2024-01-11T00:00:42.368Z,73.04
2024-01-11T00:01:52.035Z,73.47
2024-01-11T00:02:58.952Z,73.26
2024-01-11T00:04:04.460Z,73.53
2024-01-11T00:05:12.164Z,73.47
2024-01-11T00:06:17.828Z,73.31
2024-01-11T00:07:24.653Z,73.55
2024-01-11T00:08:30.130Z,73.04
2024-01-11T00:09:36.888Z,73.12
2024-01-11T00:10:42.196Z,73.30
2024-01-11T00:11:48.954Z,72.78
2024-01-11T00:12:54.440Z,72.69
2024-01-11T00:14:01.145Z,72.85
2024-01-11T00:15:06.932Z,72.77
2024-01-11T00:16:13.756Z,72.77
2024-01-11T00:17:21.214Z,73.30
2024-01-11T00:18:28.180Z,73.14
2024-01-11T00:19:34.339Z,73.23
2024-01-11T00:20:41.160Z,73.20
2024-01-11T00:21:46.588Z,72.56
2024-01-11T00:22:53.353Z,72.90
2024-01-11T00:23:58.866Z,72.80
2024-01-11T00:25:06.575Z,72.48
2024-01-11T00:26:12.364Z,72.73
2024-01-11T00:27:19.489Z,72.62
2024-01-11T00:28:24.880Z,72.80
2024-01-11T00:29:32.089Z,72.80
2024-01-11T00:30:37.524Z,72.79
2024-01-11T00:31:44.295Z,73.02
2024-01-11T00:32:51.656Z,72.93
2024-01-11T00:33:58.496Z,72.81
2024-01-11T00:35:03.984Z,72.56
2024-01-11T00:36:10.924Z,72.78
2024-01-11T00:37:16.340Z,72.79
2024-01-11T00:38:23.094Z,72.92
2024-01-11T00:39:28.545Z,73.29
2024-01-11T00:40:35.283Z,73.26
2024-01-11T00:41:40.809Z,73.00
2024-01-11T00:42:47.525Z,72.78
2024-01-11T00:43:53.112Z,72.83
2024-01-11T00:44:59.864Z,72.90
2024-01-11T00:46:05.301Z,73.10
2024-01-11T00:47:13.328Z,72.95
2024-01-11T00:48:20.608Z,73.15
2024-01-11T00:49:27.561Z,73.00
2024-01-11T00:50:33.427Z,72.74
2024-01-11T00:51:40.182Z,72.87
2024-01-11T00:52:45.587Z,73.12
2024-01-11T00:53:51.022Z,73.04
2024-01-11T00:54:57.728Z,73.20
2024-01-11T00:56:03.204Z,72.79
2024-01-11T00:57:10.616Z,73.03
2024-01-11T00:58:16.136Z,72.47
2024-01-11T00:59:22.945Z,72.82
2024-01-11T01:00:28.362Z,73.01
2024-01-11T01:01:35.094Z,72.46
2024-01-11T01:02:40.600Z,72.87
2024-01-11T01:03:49.345Z,73.06
2024-01-11T01:04:54.928Z,72.61
2024-01-11T01:06:01.970Z,72.56
2024-01-11T01:07:08.327Z,72.69
2024-01-11T01:08:15.106Z,72.62
2024-01-11T01:09:20.535Z,72.46
2024-01-11T01:10:27.320Z,72.72
2024-01-11T01:11:32.789Z,72.94
2024-01-11T01:12:38.153Z,72.41
2024-01-11T01:13:44.888Z,73.08
2024-01-11T01:14:50.326Z,72.74
2024-01-11T01:15:57.047Z,72.77
2024-01-11T01:17:02.521Z,72.55
2024-01-11T01:18:09.794Z,72.61
2024-01-11T01:19:17.136Z,73.08
2024-01-11T01:20:24.054Z,73.21
2024-01-11T01:21:29.479Z,72.79
2024-01-11T01:22:36.232Z,72.74
2024-01-11T01:23:41.729Z,73.08
2024-01-11T01:24:48.614Z,73.21
2024-01-11T01:25:54.215Z,73.20
2024-01-11T01:27:01.092Z,72.95
2024-01-11T01:28:06.847Z,72.83
2024-01-11T01:29:14.438Z,73.20
2024-01-11T01:30:19.999Z,72.83
2024-01-11T01:31:27.142Z,73.28
2024-01-11T01:32:33.492Z,73.13
2024-01-11T01:33:40.413Z,73.07
2024-01-11T01:34:48.781Z,73.92
2024-01-11T01:35:55.805Z,73.48
2024-01-11T01:37:01.271Z,73.58
2024-01-11T01:38:08.251Z,73.13
2024-01-11T01:39:13.597Z,73.21
2024-01-11T01:40:20.424Z,73.51
2024-01-11T01:41:25.849Z,73.17
2024-01-11T01:42:32.637Z,73.19
2024-01-11T01:43:38.055Z,73.14
2024-01-11T01:44:45.187Z,73.54
2024-01-11T01:45:51.242Z,72.86
2024-01-11T01:46:58.289Z,73.14
2024-01-11T01:48:04.125Z,72.93
2024-01-11T01:49:11.457Z,73.28
2024-01-11T01:50:18.708Z,73.12
2024-01-11T01:51:25.909Z,72.95
2024-01-11T01:52:31.613Z,72.78
2024-01-11T01:53:38.510Z,72.76
2024-01-11T01:54:44.256Z,72.70
2024-01-11T01:55:51.238Z,72.60
2024-01-11T01:56:57.342Z,72.31
2024-01-11T01:58:05.717Z,72.59
2024-01-11T01:59:11.311Z,72.33
2024-01-11T02:00:19.104Z,72.09
2024-01-11T02:01:25.610Z,71.97
2024-01-11T02:02:32.789Z,72.31
2024-01-11T02:03:40.092Z,71.91
2024-01-11T02:04:47.237Z,71.77
2024-01-11T02:05:56.187Z,71.67
2024-01-11T02:07:03.427Z,71.58
2024-01-11T02:08:11.297Z,71.06
2024-01-11T02:09:18.513Z,71.35
2024-01-11T02:10:23.956Z,70.94
2024-01-11T02:11:30.804Z,70.75
2024-01-11T02:12:36.655Z,70.75
2024-01-11T02:13:42.137Z,70.56
2024-01-11T02:14:48.844Z,70.44
2024-01-11T02:15:54.266Z,70.15
2024-01-11T02:17:01.032Z,70.25
2024-01-11T02:18:06.849Z,70.04
2024-01-11T02:19:18.989Z,69.78
2024-01-11T02:20:24.765Z,69.88
2024-01-11T02:21:33.918Z,69.69
2024-01-11T02:22:42.373Z,69.63
2024-01-11T02:23:52.386Z,69.20
2024-01-11T02:25:00.671Z,69.11
2024-01-11T02:26:07.612Z,68.97
2024-01-11T02:27:13.516Z,69.18
2024-01-11T02:28:20.163Z,68.97
2024-01-11T02:29:25.479Z,68.65
2024-01-11T02:30:32.236Z,68.30
2024-01-11T02:31:37.565Z,68.34
2024-01-11T02:32:44.711Z,68.14
2024-01-11T02:33:50.246Z,68.06
2024-01-11T02:34:57.086Z,68.09
2024-01-11T02:36:02.369Z,67.93
2024-01-11T02:37:09.866Z,67.77
2024-01-11T02:38:15.322Z,67.79
2024-01-11T02:39:21.107Z,67.41
2024-01-11T02:40:29.592Z,67.26
2024-01-11T02:41:36.088Z,67.07
2024-01-11T02:42:42.708Z,67.37
2024-01-11T02:43:51.548Z,66.11
2024-01-11T02:44:56.898Z,67.04
2024-01-11T02:46:03.588Z,66.93
2024-01-11T02:47:08.958Z,66.55
2024-01-11T02:48:15.908Z,66.57
2024-01-11T02:49:21.449Z,66.69
2024-01-11T02:50:28.104Z,66.51
2024-01-11T02:51:33.453Z,66.54
2024-01-11T02:52:40.162Z,66.67
2024-01-11T02:53:45.517Z,66.17
2024-01-11T02:54:52.272Z,66.06
2024-01-11T02:56:01.599Z,65.58
2024-01-11T02:57:10.605Z,65.99
2024-01-11T02:58:15.852Z,66.13
2024-01-11T02:59:22.525Z,66.24
2024-01-11T03:00:27.947Z,66.30
2024-01-11T03:01:35.098Z,65.85
2024-01-11T03:02:41.783Z,66.04
2024-01-11T03:03:50.718Z,65.84
2024-01-11T03:04:57.824Z,65.32
2024-01-11T03:06:04.444Z,65.77
2024-01-11T03:07:09.773Z,65.58
2024-01-11T03:08:16.700Z,65.33
2024-01-11T03:09:22.262Z,65.70
2024-01-11T03:10:29.044Z,65.68
2024-01-11T03:11:36.064Z,65.22
2024-01-11T03:12:44.274Z,65.53
2024-01-11T03:13:49.607Z,65.37
2024-01-11T03:14:56.276Z,65.57
2024-01-11T03:16:01.621Z,65.36
2024-01-11T03:17:09.130Z,64.92
2024-01-11T03:18:14.641Z,64.78
2024-01-11T03:19:21.496Z,65.28
2024-01-11T03:20:27.441Z,64.65
2024-01-11T03:21:34.150Z,65.14
2024-01-11T03:22:39.446Z,64.74
2024-01-11T03:23:44.780Z,64.81
2024-01-11T03:24:51.429Z,64.36
2024-01-11T03:25:56.799Z,64.61
2024-01-11T03:27:05.382Z,64.71
2024-01-11T03:28:11.568Z,63.94
2024-01-11T03:29:18.250Z,63.72
2024-01-11T03:30:23.618Z,64.33
2024-01-11T03:31:30.201Z,63.84
2024-01-11T03:32:35.668Z,63.79
2024-01-11T03:33:42.393Z,63.71
2024-01-11T03:34:47.809Z,63.66
2024-01-11T03:35:54.564Z,63.62
2024-01-11T03:37:00.015Z,63.52
2024-01-11T03:38:06.842Z,64.00
2024-01-11T03:39:12.191Z,63.53
2024-01-11T03:40:19.282Z,63.46
2024-01-11T03:41:24.627Z,63.37
2024-01-11T03:42:33.041Z,63.72
2024-01-11T03:43:38.378Z,63.05
2024-01-11T03:44:45.114Z,63.18
2024-01-11T03:45:50.448Z,63.21
2024-01-11T03:46:57.166Z,62.87
2024-01-11T03:48:02.488Z,62.73
2024-01-11T03:49:10.229Z,63.11
2024-01-11T03:50:15.751Z,62.96
2024-01-11T03:51:21.079Z,62.79
2024-01-11T03:52:27.754Z,62.67
2024-01-11T03:53:33.063Z,62.27
2024-01-11T03:54:39.744Z,62.49
2024-01-11T03:55:45.137Z,61.90
2024-01-11T03:56:51.842Z,62.04
2024-01-11T03:57:58.917Z,61.98
2024-01-11T03:59:05.499Z,62.26
2024-01-11T04:00:12.373Z,62.42
2024-01-11T04:01:19.081Z,61.75
2024-01-11T04:02:24.524Z,61.92
2024-01-11T04:03:31.271Z,62.00
2024-01-11T04:04:36.583Z,61.93
2024-01-11T04:05:43.681Z,61.53
2024-01-11T04:06:49.061Z,61.83
2024-01-11T04:07:55.807Z,61.98
2024-01-11T04:09:01.256Z,61.21
2024-01-11T04:10:08.461Z,61.60
2024-01-11T04:11:13.778Z,61.17
2024-01-11T04:12:20.465Z,61.52
2024-01-11T04:13:27.607Z,60.53
2024-01-11T04:14:34.340Z,61.00
2024-01-11T04:15:39.738Z,60.58
2024-01-11T04:16:47.116Z,60.49
2024-01-11T04:17:52.632Z,60.58
2024-01-11T04:18:59.480Z,61.23
2024-01-11T04:20:04.857Z,60.87
2024-01-11T04:21:11.545Z,61.06
2024-01-11T04:22:16.811Z,60.94
2024-01-11T04:23:23.799Z,60.41
2024-01-11T04:24:29.251Z,60.65
2024-01-11T04:25:35.840Z,60.01
2024-01-11T04:26:41.279Z,60.12
2024-01-11T04:27:48.018Z,60.51
2024-01-11T04:28:58.650Z,59.40
2024-01-11T04:30:08.965Z,59.78
2024-01-11T04:31:14.291Z,59.67
2024-01-11T04:32:20.954Z,60.09
2024-01-11T04:33:26.355Z,59.53
2024-01-11T04:34:33.327Z,59.93
2024-01-11T04:35:38.978Z,59.61
2024-01-11T04:36:45.612Z,59.23
2024-01-11T04:37:50.959Z,59.67
2024-01-11T04:38:56.332Z,59.64
2024-01-11T04:40:03.017Z,59.13
2024-01-11T04:41:12.585Z,58.39
2024-01-11T04:42:19.691Z,59.60
2024-01-11T04:43:24.904Z,59.41
2024-01-11T04:44:33.458Z,59.33
2024-01-11T04:45:38.859Z,58.82
2024-01-11T04:46:45.511Z,59.07
2024-01-11T04:47:50.981Z,59.11
2024-01-11T04:48:58.141Z,59.09
2024-01-11T04:50:03.550Z,58.99
2024-01-11T04:51:10.243Z,58.92
2024-01-11T04:52:15.579Z,58.73
2024-01-11T04:53:22.377Z,58.92
2024-01-11T04:54:28.756Z,56.77
2024-01-11T04:55:35.415Z,57.68
2024-01-11T04:56:40.734Z,58.01
2024-01-11T04:57:47.430Z,57.81
2024-01-11T04:58:52.840Z,57.98
2024-01-11T05:00:03.663Z,57.21
2024-01-11T05:01:09.848Z,57.62
2024-01-11T05:02:16.469Z,57.18
2024-01-11T05:03:21.892Z,57.49
2024-01-11T05:04:28.694Z,57.33
2024-01-11T05:05:34.078Z,57.05
2024-01-11T05:06:40.788Z,57.25
2024-01-11T05:07:46.118Z,56.91
2024-01-11T05:08:54.069Z,57.24
2024-01-11T05:09:59.598Z,57.38
2024-01-11T05:11:06.201Z,57.54
2024-01-11T05:12:11.860Z,57.63
2024-01-11T05:13:18.486Z,57.42
2024-01-11T05:14:23.934Z,57.23
2024-01-11T05:15:32.331Z,56.97
2024-01-11T05:16:38.492Z,57.26
2024-01-11T05:17:45.326Z,56.95
2024-01-11T05:18:50.766Z,57.21
2024-01-11T05:19:57.612Z,57.09
2024-01-11T05:21:02.999Z,57.41
2024-01-11T05:22:09.756Z,56.90
2024-01-11T05:23:15.133Z,56.80
2024-01-11T05:24:21.769Z,57.32
2024-01-11T05:25:27.077Z,56.87
2024-01-11T05:26:33.718Z,57.12
2024-01-11T05:27:39.108Z,57.33
2024-01-11T05:28:45.705Z,57.23
2024-01-11T05:29:51.070Z,57.32
2024-01-11T05:30:59.668Z,57.29
2024-01-11T05:32:05.201Z,57.21
2024-01-11T05:33:12.071Z,57.60
2024-01-11T05:34:17.692Z,57.27
2024-01-11T05:35:24.664Z,57.40
2024-01-11T05:36:30.076Z,57.30
2024-01-11T05:37:36.720Z,57.45
2024-01-11T05:38:43.255Z,57.06
2024-01-11T05:39:50.025Z,57.49
2024-01-11T05:40:55.542Z,57.35
2024-01-11T05:42:02.279Z,57.40
2024-01-11T05:43:07.747Z,57.32
2024-01-11T05:44:14.451Z,57.04
2024-01-11T05:45:22.861Z,57.38
2024-01-11T05:46:37.001Z,57.19
2024-01-11T05:47:42.561Z,57.31
2024-01-11T05:48:49.433Z,57.09
2024-01-11T05:49:54.909Z,57.34
2024-01-11T05:51:02.391Z,57.62
2024-01-11T05:52:08.376Z,57.32
2024-01-11T05:53:15.058Z,57.15
2024-01-11T05:54:20.436Z,57.03
2024-01-11T05:55:27.012Z,57.17
2024-01-11T05:56:32.360Z,57.44
2024-01-11T05:57:39.064Z,57.43
2024-01-11T05:58:44.410Z,57.50
2024-01-11T05:59:51.236Z,57.03
2024-01-11T06:00:58.119Z,57.46
2024-01-11T06:02:06.575Z,57.21
2024-01-11T06:03:11.947Z,57.24
2024-01-11T06:04:19.065Z,57.38
2024-01-11T06:05:24.542Z,57.23
2024-01-11T06:06:31.289Z,57.16
2024-01-11T06:07:36.590Z,57.16
2024-01-11T06:08:45.333Z,57.11
2024-01-11T06:09:50.710Z,57.29
2024-01-11T06:10:57.369Z,57.34
2024-01-11T06:12:02.706Z,57.43
2024-01-11T06:13:09.580Z,57.88
2024-01-11T06:14:14.974Z,57.88
2024-01-11T06:15:22.249Z,57.39
2024-01-11T06:16:27.643Z,57.47
2024-01-11T06:17:36.161Z,57.02
2024-01-11T06:18:41.956Z,57.03
2024-01-11T06:19:48.656Z,56.71
2024-01-11T06:20:53.978Z,56.97
2024-01-11T06:22:00.687Z,56.62
2024-01-11T06:23:06.167Z,56.59
2024-01-11T06:24:12.775Z,56.02
2024-01-11T06:25:18.725Z,56.39
2024-01-11T06:26:25.896Z,56.43
2024-01-11T06:27:31.301Z,56.23
2024-01-11T06:28:37.996Z,56.17
2024-01-11T06:29:43.345Z,56.14
2024-01-11T06:30:50.364Z,56.00
2024-01-11T06:31:55.885Z,55.94
2024-01-11T06:33:04.420Z,55.57
2024-01-11T06:34:09.812Z,55.76
2024-01-11T06:35:16.503Z,55.77
2024-01-11T06:36:21.874Z,55.73
2024-01-11T06:37:28.470Z,55.68
2024-01-11T06:38:33.803Z,55.49
2024-01-11T06:39:40.509Z,55.58
2024-01-11T06:40:46.190Z,55.57
2024-01-11T06:41:52.785Z,54.58
2024-01-11T06:42:58.130Z,54.98
2024-01-11T06:44:05.056Z,54.74
2024-01-11T06:45:11.500Z,55.19
2024-01-11T06:46:18.168Z,54.62
2024-01-11T06:47:23.670Z,54.30
2024-01-11T06:48:32.179Z,53.17
2024-01-11T06:49:38.335Z,54.10
2024-01-11T06:50:45.079Z,54.25
2024-01-11T06:51:50.462Z,54.38
2024-01-11T06:52:57.261Z,54.00
2024-01-11T06:54:07.222Z,51.26
2024-01-11T06:55:14.747Z,53.98
2024-01-11T06:56:20.978Z,53.61
2024-01-11T06:57:27.755Z,53.76
2024-01-11T06:58:33.032Z,53.63
2024-01-11T06:59:39.917Z,53.58
2024-01-11T07:00:46.032Z,53.60
2024-01-11T07:01:52.847Z,53.72
2024-01-11T07:02:58.225Z,54.11
2024-01-11T07:04:06.758Z,53.20
2024-01-11T07:05:12.377Z,53.73
2024-01-11T07:06:19.627Z,53.82
2024-01-11T07:07:25.290Z,53.80
2024-01-11T07:08:32.300Z,53.81
2024-01-11T07:09:37.598Z,54.05
2024-01-11T07:10:44.892Z,53.85
2024-01-11T07:11:50.252Z,53.67
2024-01-11T07:12:56.956Z,53.34
2024-01-11T07:14:02.532Z,53.21
2024-01-11T07:15:10.605Z,52.94
2024-01-11T07:16:16.554Z,53.20
2024-01-11T07:17:23.713Z,52.60
2024-01-11T07:18:29.254Z,52.97
2024-01-11T07:19:37.689Z,52.33
2024-01-11T07:20:43.132Z,52.82
2024-01-11T07:21:50.388Z,52.92
2024-01-11T07:22:55.685Z,52.99
2024-01-11T07:24:02.402Z,52.91
2024-01-11T07:25:08.214Z,52.69
2024-01-11T07:26:15.616Z,52.89
2024-01-11T07:27:21.571Z,52.83
2024-01-11T07:28:28.685Z,52.87
2024-01-11T07:29:34.117Z,52.99
2024-01-11T07:30:41.016Z,53.12
2024-01-11T07:31:46.376Z,53.06
2024-01-11T07:32:54.231Z,53.00
2024-01-11T07:33:59.690Z,53.00
2024-01-11T07:35:13.101Z,52.86
2024-01-11T07:36:20.613Z,53.28
2024-01-11T07:37:28.264Z,53.01
2024-01-11T07:38:33.600Z,53.04
2024-01-11T07:39:40.741Z,53.20
2024-01-11T07:40:46.221Z,52.84
2024-01-11T07:41:53.034Z,52.85
2024-01-11T07:42:58.372Z,52.92
2024-01-11T07:44:05.122Z,52.79
2024-01-11T07:45:12.781Z,52.73
2024-01-11T07:46:19.499Z,52.83
2024-01-11T07:47:25.050Z,52.83
2024-01-11T07:48:31.774Z,52.57
2024-01-11T07:49:37.267Z,52.79
2024-01-11T07:50:45.786Z,52.50
2024-01-11T07:51:51.581Z,52.69
2024-01-11T07:52:58.916Z,52.54
2024-01-11T07:54:05.145Z,52.05
2024-01-11T07:55:14.133Z,52.45
2024-01-11T07:56:20.147Z,52.46
2024-01-11T07:57:27.090Z,52.30
2024-01-11T07:58:32.477Z,52.39
2024-01-11T07:59:40.002Z,52.36
2024-01-11T08:00:45.420Z,52.25
2024-01-11T08:01:53.191Z,52.27
2024-01-11T08:02:58.707Z,52.00
2024-01-11T08:04:05.434Z,51.84
2024-01-11T08:05:11.482Z,52.17
2024-01-11T08:06:19.875Z,52.02
2024-01-11T08:07:25.269Z,52.02
2024-01-11T08:08:32.105Z,51.42
2024-01-11T08:09:37.770Z,51.42
2024-01-11T08:10:44.441Z,51.08
2024-01-11T08:11:51.367Z,50.68
2024-01-11T08:13:01.954Z,51.13
2024-01-11T08:14:08.067Z,49.96
2024-01-11T08:15:15.481Z,50.70
2024-01-11T08:16:21.133Z,50.82
2024-01-11T08:17:27.934Z,49.83
2024-01-11T08:18:33.409Z,51.05
2024-01-11T08:19:40.065Z,51.07
2024-01-11T08:20:45.421Z,50.98
2024-01-11T08:21:53.740Z,50.06
2024-01-11T08:22:59.562Z,50.22
2024-01-11T08:24:06.969Z,50.39
2024-01-11T08:25:12.546Z,50.08
2024-01-11T08:26:18.332Z,50.36
2024-01-11T08:27:25.053Z,50.54
2024-01-11T08:28:30.365Z,50.41
2024-01-11T08:29:37.669Z,50.60
2024-01-11T08:30:46.765Z,50.34
2024-01-11T08:31:53.554Z,50.47
2024-01-11T08:32:58.939Z,50.27
2024-01-11T08:34:05.892Z,49.80
2024-01-11T08:35:14.319Z,50.34
2024-01-11T08:36:21.301Z,50.21
2024-01-11T08:37:28.334Z,49.96
2024-01-11T08:38:35.013Z,50.36
2024-01-11T08:39:41.295Z,50.13
2024-01-11T08:40:48.785Z,50.17
2024-01-11T08:41:54.699Z,50.04
2024-01-11T08:43:01.363Z,50.21
2024-01-11T08:44:09.809Z,49.83
2024-01-11T08:45:20.320Z,49.80
2024-01-11T08:46:29.275Z,48.02
2024-01-11T08:47:36.019Z,49.79
2024-01-11T08:48:41.764Z,49.90
2024-01-11T08:49:48.659Z,49.73
2024-01-11T08:50:54.120Z,49.46
2024-01-11T08:52:00.784Z,49.55
2024-01-11T08:53:07.934Z,49.40
2024-01-11T08:54:15.028Z,49.81
2024-01-11T08:55:20.439Z,49.55
2024-01-11T08:56:27.304Z,49.57
2024-01-11T08:57:32.557Z,49.48
2024-01-11T08:58:39.218Z,49.49
2024-01-11T08:59:44.679Z,49.65
2024-01-11T09:00:51.468Z,49.47
2024-01-11T09:02:06.259Z,48.90
2024-01-11T09:03:22.101Z,49.18
2024-01-11T09:04:27.513Z,49.26
2024-01-11T09:05:34.537Z,49.14
2024-01-11T09:06:39.822Z,49.13
2024-01-11T09:07:46.832Z,48.73
2024-01-11T09:08:54.894Z,48.48
2024-01-11T09:10:01.549Z,49.04
2024-01-11T09:11:07.230Z,48.94
2024-01-11T09:12:13.955Z,49.08
2024-01-11T09:13:19.174Z,47.12
2024-01-11T09:14:25.857Z,47.40
2024-01-11T09:15:31.250Z,48.38
2024-01-11T09:16:36.595Z,47.78
2024-01-11T09:17:43.214Z,47.87
2024-01-11T09:18:48.629Z,48.10
2024-01-11T09:19:55.791Z,46.78
2024-01-11T09:21:01.137Z,47.51
2024-01-11T09:22:08.044Z,47.71
2024-01-11T09:23:13.455Z,47.75
2024-01-11T09:24:21.961Z,47.68
2024-01-11T09:25:27.254Z,47.89
2024-01-11T09:26:34.058Z,46.96
2024-01-11T09:27:39.571Z,47.37
2024-01-11T09:28:48.353Z,47.04
2024-01-11T09:29:56.873Z,47.06
2024-01-11T09:31:05.833Z,47.03
2024-01-11T09:32:11.408Z,46.86
2024-01-11T09:33:19.143Z,47.10
2024-01-11T09:34:24.788Z,47.23
2024-01-11T09:35:31.564Z,47.22
2024-01-11T09:36:37.028Z,46.96
2024-01-11T09:37:43.923Z,47.15
2024-01-11T09:38:52.966Z,47.02
2024-01-11T09:40:03.287Z,46.94
2024-01-11T09:41:13.999Z,46.62
2024-01-11T09:42:23.821Z,46.91
2024-01-11T09:43:29.890Z,47.36
2024-01-11T09:44:36.801Z,47.17
2024-01-11T09:45:42.244Z,47.51
2024-01-11T09:46:49.709Z,47.83
2024-01-11T09:47:57.165Z,47.47
2024-01-11T09:49:04.282Z,47.88
2024-01-11T09:50:11.163Z,47.93
2024-01-11T09:51:18.309Z,47.63
2024-01-11T09:52:24.491Z,46.47
2024-01-11T09:53:32.043Z,46.60
2024-01-11T09:54:37.453Z,46.98
2024-01-11T09:55:46.001Z,47.36
2024-01-11T09:56:52.835Z,47.21
2024-01-11T09:58:02.271Z,47.40
2024-01-11T09:59:13.371Z,47.73
2024-01-11T10:00:24.944Z,47.90
2024-01-11T10:01:30.375Z,47.88
2024-01-11T10:02:37.245Z,47.82
2024-01-11T10:03:44.493Z,48.01
2024-01-11T10:04:51.454Z,48.28
2024-01-11T10:06:00.721Z,48.11
2024-01-11T10:07:09.662Z,47.90
2024-01-11T10:08:15.603Z,48.37
2024-01-11T10:09:22.569Z,47.98
2024-01-11T10:10:28.321Z,48.02
2024-01-11T10:11:37.146Z,48.52
2024-01-11T10:12:43.478Z,48.58
2024-01-11T10:13:50.158Z,48.51
2024-01-11T10:14:55.696Z,48.57
2024-01-11T10:16:17.904Z,48.39
2024-01-11T10:17:25.627Z,48.40
2024-01-11T10:18:33.011Z,48.36
2024-01-11T10:19:38.765Z,48.74
2024-01-11T10:20:45.758Z,49.08
2024-01-11T10:21:51.560Z,49.22
2024-01-11T10:22:58.375Z,49.30
2024-01-11T10:24:06.940Z,49.48
2024-01-11T10:25:15.339Z,49.42
2024-01-11T10:26:21.649Z,49.51
2024-01-11T10:27:33.175Z,49.22
2024-01-11T10:28:40.192Z,49.72
2024-01-11T10:29:47.658Z,49.86
2024-01-11T10:30:55.865Z,49.57
2024-01-11T10:32:01.396Z,50.07
2024-01-11T10:33:08.788Z,50.12
2024-01-11T10:34:14.480Z,50.12
2024-01-11T10:35:20.960Z,50.04
2024-01-11T10:36:28.203Z,49.96
2024-01-11T10:37:35.327Z,50.21
2024-01-11T10:38:43.661Z,50.27
2024-01-11T10:41:25.865Z,50.37
2024-01-11T10:42:42.999Z,50.05
2024-01-11T10:43:51.172Z,50.47
2024-01-11T10:44:59.914Z,50.46
2024-01-11T10:46:09.249Z,50.62
2024-01-11T10:47:14.943Z,50.56
2024-01-11T10:48:21.964Z,50.46
2024-01-11T10:49:29.628Z,50.29
2024-01-11T10:50:40.464Z,49.60
2024-01-11T10:51:49.041Z,50.45
2024-01-11T10:53:15.367Z,49.71
2024-01-11T10:54:21.196Z,50.77
2024-01-11T10:55:28.172Z,50.60
2024-01-11T10:56:34.572Z,50.62
2024-01-11T10:57:43.325Z,50.26
2024-01-11T10:58:49.440Z,50.95
2024-01-11T10:59:57.618Z,50.71
2024-01-11T11:01:03.521Z,51.11
2024-01-11T11:02:15.447Z,51.36
2024-01-11T11:03:22.358Z,50.86
2024-01-11T11:04:30.186Z,51.06
2024-01-11T11:05:38.030Z,50.84
2024-01-11T11:06:45.003Z,51.08
2024-01-11T11:07:51.603Z,50.97
2024-01-11T11:08:58.624Z,51.48
2024-01-11T11:10:04.392Z,51.13
2024-01-11T11:11:11.273Z,51.25
2024-01-11T11:12:17.219Z,51.61
2024-01-11T11:13:26.439Z,51.45
2024-01-11T11:14:32.386Z,51.20
2024-01-11T11:15:41.116Z,51.02
2024-01-11T11:16:46.711Z,51.62
2024-01-11T11:17:55.790Z,51.59
2024-01-11T11:19:01.502Z,51.74
2024-01-11T11:20:09.686Z,51.70
2024-01-11T11:21:15.438Z,52.03
2024-01-11T11:22:22.370Z,51.78
2024-01-11T11:23:27.928Z,52.19
2024-01-11T11:24:34.695Z,52.20
2024-01-11T11:25:41.699Z,52.16
2024-01-11T11:26:48.740Z,52.13
2024-01-11T11:27:55.202Z,52.60
2024-01-11T11:29:03.546Z,52.60
2024-01-11T11:30:10.429Z,52.33
2024-01-11T11:31:17.232Z,52.67
2024-01-11T11:32:43.456Z,52.58
2024-01-11T11:33:50.274Z,52.82
2024-01-11T11:34:56.328Z,53.10
2024-01-11T11:36:03.523Z,52.75
2024-01-11T11:37:26.557Z,53.32
2024-01-11T11:38:33.993Z,53.31
2024-01-11T11:39:39.650Z,52.87
2024-01-11T11:40:47.646Z,53.34
2024-01-11T11:41:55.277Z,53.36
2024-01-11T11:43:00.655Z,53.40
2024-01-11T11:44:08.707Z,53.49
2024-01-11T11:45:15.684Z,53.62
2024-01-11T11:46:22.239Z,53.47
2024-01-11T11:47:29.463Z,53.80
2024-01-11T11:48:58.204Z,54.04
2024-01-11T11:50:12.478Z,54.31
2024-01-11T11:51:20.568Z,53.94
2024-01-11T11:52:26.436Z,53.80
2024-01-11T11:53:36.257Z,53.95
2024-01-11T11:54:41.801Z,54.27
2024-01-11T11:55:48.444Z,54.33
2024-01-11T11:56:55.937Z,53.81
2024-01-11T11:58:03.412Z,54.53
2024-01-11T11:59:10.889Z,54.10
2024-01-11T12:00:19.237Z,54.59
2024-01-11T12:01:25.041Z,54.12
2024-01-11T12:02:32.335Z,54.66
2024-01-11T12:03:39.868Z,54.02
2024-01-11T12:04:46.535Z,54.62
2024-01-11T12:05:52.306Z,54.66
2024-01-11T12:06:59.592Z,54.71
2024-01-11T12:08:04.984Z,54.27
2024-01-11T12:09:12.161Z,54.38
2024-01-11T12:10:18.211Z,55.07
2024-01-11T12:11:25.425Z,54.91
2024-01-11T12:12:31.328Z,54.73
2024-01-11T12:13:38.611Z,54.47
2024-01-11T12:14:45.900Z,55.06
2024-01-11T12:15:52.664Z,54.66
2024-01-11T12:17:00.485Z,54.63
2024-01-11T12:18:07.531Z,54.79
2024-01-11T12:19:13.050Z,54.56
2024-01-11T12:20:22.742Z,54.77
2024-01-11T12:21:29.594Z,54.93
2024-01-11T12:22:36.351Z,54.69
2024-01-11T12:23:42.613Z,54.70
2024-01-11T12:24:49.229Z,54.65
2024-01-11T12:25:54.590Z,54.91
2024-01-11T12:27:01.873Z,55.23
2024-01-11T12:28:07.832Z,55.16
2024-01-11T12:29:15.682Z,54.82
2024-01-11T12:30:23.105Z,54.77
2024-01-11T12:31:29.926Z,54.86
2024-01-11T12:32:35.593Z,54.77
2024-01-11T12:33:43.780Z,54.69
2024-01-11T12:34:49.668Z,54.74
2024-01-11T12:35:56.413Z,55.30
2024-01-11T12:37:04.356Z,55.19
2024-01-11T12:38:12.039Z,54.60
2024-01-11T12:39:17.834Z,55.00
2024-01-11T12:40:24.530Z,55.22
2024-01-11T12:41:29.988Z,55.15
2024-01-11T12:42:37.467Z,55.03
2024-01-11T12:43:42.849Z,55.14
2024-01-11T12:44:55.124Z,54.68
2024-01-11T12:46:02.486Z,55.31
2024-01-11T12:47:09.996Z,54.84
2024-01-11T12:48:17.100Z,55.40
2024-01-11T12:49:24.365Z,55.25
2024-01-11T12:50:30.392Z,55.06
2024-01-11T12:51:37.047Z,54.79
2024-01-11T12:52:42.373Z,55.49
2024-01-11T12:53:51.407Z,54.80
2024-01-11T12:54:56.824Z,54.85
2024-01-11T12:56:13.089Z,55.13
2024-01-11T12:57:23.027Z,54.91
2024-01-11T12:58:29.916Z,54.92
2024-01-11T12:59:35.179Z,54.86
2024-01-11T13:00:42.829Z,55.44
2024-01-11T13:01:49.896Z,55.39
2024-01-11T13:02:56.707Z,55.41
2024-01-11T13:04:01.997Z,54.93
2024-01-11T13:05:09.985Z,55.02
2024-01-11T13:06:16.167Z,55.01
2024-01-11T13:07:42.854Z,55.45
2024-01-11T13:08:48.237Z,55.47
2024-01-11T13:09:54.829Z,55.01
2024-01-11T13:11:00.100Z,55.04
2024-01-11T13:12:07.238Z,55.78
2024-01-11T13:13:12.511Z,55.32
2024-01-11T13:14:21.754Z,55.93
2024-01-11T13:15:27.213Z,55.21
2024-01-11T13:16:34.160Z,55.50
2024-01-11T13:17:41.912Z,55.52
2024-01-11T13:18:50.619Z,56.02
2024-01-11T13:19:57.329Z,55.46
2024-01-11T13:21:05.793Z,55.95
2024-01-11T13:22:12.029Z,55.63
2024-01-11T13:23:24.581Z,56.54
2024-01-11T13:24:30.293Z,55.69
2024-01-11T13:25:37.268Z,56.57
2024-01-11T13:26:43.641Z,56.47
2024-01-11T13:27:51.222Z,55.91
2024-01-11T13:28:57.031Z,56.39
2024-01-11T13:30:04.444Z,56.31
2024-01-11T13:31:13.108Z,56.20
2024-01-11T13:32:25.034Z,56.55
2024-01-11T13:33:34.523Z,56.77
2024-01-11T13:34:46.570Z,56.18
2024-01-11T13:35:54.259Z,56.68
2024-01-11T13:37:02.269Z,56.12
2024-01-11T13:38:13.924Z,56.23
2024-01-11T13:39:23.390Z,56.29
2024-01-11T13:40:31.405Z,56.63
2024-01-11T13:41:37.340Z,56.97
2024-01-11T13:42:46.253Z,57.37
2024-01-11T13:43:52.820Z,57.08
2024-01-11T13:45:02.888Z,56.95
2024-01-11T13:46:09.721Z,57.30
2024-01-11T13:47:18.539Z,57.11
2024-01-11T13:48:24.539Z,57.50
2024-01-11T13:49:34.043Z,57.03
2024-01-11T13:50:40.272Z,56.71
2024-01-11T13:51:53.985Z,57.39
2024-01-11T13:53:07.284Z,56.92
2024-01-11T13:54:18.077Z,57.42
2024-01-11T13:55:25.141Z,57.16
2024-01-11T13:56:32.796Z,57.65
2024-01-11T13:57:39.555Z,57.30
2024-01-11T13:58:47.593Z,57.15
2024-01-11T13:59:56.212Z,57.39
2024-01-11T14:01:05.369Z,57.78
2024-01-11T14:02:11.862Z,57.33
2024-01-11T14:03:20.045Z,57.36
2024-01-11T14:04:27.506Z,57.73
2024-01-11T14:05:37.528Z,58.10
2024-01-11T14:06:43.966Z,57.97
2024-01-11T14:08:12.145Z,57.96
2024-01-11T14:09:37.848Z,58.10
2024-01-11T14:10:45.960Z,57.92
2024-01-11T14:11:52.423Z,58.05
2024-01-11T14:13:00.284Z,57.45
2024-01-11T14:14:06.555Z,58.18
2024-01-11T14:15:27.904Z,57.89
2024-01-11T14:16:34.140Z,58.05
2024-01-11T14:17:44.312Z,57.62
2024-01-11T14:18:52.313Z,57.60
2024-01-11T14:20:03.689Z,58.55
2024-01-11T14:21:14.023Z,58.66
2024-01-11T14:22:24.220Z,58.55
2024-01-11T14:23:32.739Z,58.04
2024-01-11T14:24:39.511Z,58.39
2024-01-11T14:25:47.834Z,58.38